Terminal Aerodrome Forecast
Issued by NWS

Home | Current Version | Previous Version | Text Only | Print | Product List | Glossary On
Versions: 1 2 3 4 5 6 7 8 9 10 11 12 13 14 15 16 17 18 19 20
000
FTUS41 KBGM 010050 AAA
TAFITH
TAF AMD
KITH 010050Z 0101/0124 14011KT P6SM BKN080
     FM010400 16008KT P6SM BKN060 WS020/20040KT
     FM011100 17010KT P6SM BKN025 WS020/20040KT
     FM011400 18011KT P6SM BKN045
     FM012100 18013G22KT 3SM -TSRA BR OVC035CB
      TEMPO 0122/0124 1SM TSRA BR=

USA.gov is the U.S. government's official web portal to all federal, state and local government web resources and services.